РПИ Архангельск

РПИ Архангельск

РПИ Архангельск является структурным подразделением VATRUS.

В зону ответственности центра в сети VATSIM входит воздушное пространство над территориями Архангельской области, а так же частью Ненецкого АО.

Руководитель РПИ

Alexey Kaznakov*

Инструкторы РПИ
Входит в состав
ЗЦ Санкт-Петербург

Диспетчеры РПИ

Диспетчер Рейтинг Допуски *
Alexey Zimin Instructor ULAA_CTR
Nikita Assorov Instructor ULAA_CTR

Аэропорты РПИ

ICAO Город Название Погода
ULAA Архангельск Архангельск ULAA 161830Z 18004MPS 2000 R08/P2000N -FZDZ BR OVC004 M06/M07 Q0978 R08/590537 NOSIG RMK QBB120 QFE733/0977
ULKK Котлас Котлас
ULAM Нарьян-Мар Нарьян-Мар